sensor_id;sensor_type;location;lat;lon;timestamp;P1;durP1;ratioP1;P2;durP2;ratioP2
23802;SDS011;12082;51.786;6.018;2023-07-31T00:01:14;27.40;;;26.00;;
23802;SDS011;12082;51.786;6.018;2023-07-31T00:03:40;28.43;;;27.03;;
23802;SDS011;12082;51.786;6.018;2023-07-31T00:06:05;27.27;;;25.87;;
23802;SDS011;12082;51.786;6.018;2023-07-31T00:08:31;25.77;;;24.37;;
23802;SDS011;12082;51.786;6.018;2023-07-31T00:10:56;27.63;;;25.90;;
23802;SDS011;12082;51.786;6.018;2023-07-31T00:13:22;26.60;;;25.00;;
23802;SDS011;12082;51.786;6.018;2023-07-31T00:15:48;36.37;;;34.20;;
23802;SDS011;12082;51.786;6.018;2023-07-31T00:18:13;33.67;;;31.07;;
23802;SDS011;12082;51.786;6.018;2023-07-31T00:20:39;37.33;;;34.57;;
23802;SDS011;12082;51.786;6.018;2023-07-31T00:23:05;41.67;;;37.53;;
23802;SDS011;12082;51.786;6.018;2023-07-31T00:25:30;38.83;;;34.20;;
23802;SDS011;12082;51.786;6.018;2023-07-31T00:27:56;45.23;;;38.80;;
23802;SDS011;12082;51.786;6.018;2023-07-31T00:30:21;55.93;;;42.00;;
23802;SDS011;12082;51.786;6.018;2023-07-31T00:32:47;66.83;;;46.60;;
23802;SDS011;12082;51.786;6.018;2023-07-31T00:35:13;79.90;;;69.57;;
23802;SDS011;12082;51.786;6.018;2023-07-31T00:37:38;68.90;;;42.13;;
23802;SDS011;12082;51.786;6.018;2023-07-31T00:40:04;73.80;;;49.63;;
23802;SDS011;12082;51.786;6.018;2023-07-31T00:42:30;72.50;;;50.23;;
23802;SDS011;12082;51.786;6.018;2023-07-31T00:44:55;75.83;;;47.30;;
23802;SDS011;12082;51.786;6.018;2023-07-31T00:47:21;80.63;;;41.53;;
23802;SDS011;12082;51.786;6.018;2023-07-31T00:49:46;65.30;;;43.93;;
23802;SDS011;12082;51.786;6.018;2023-07-31T00:52:13;78.73;;;36.63;;
23802;SDS011;12082;51.786;6.018;2023-07-31T00:54:38;67.93;;;34.77;;
23802;SDS011;12082;51.786;6.018;2023-07-31T00:57:04;64.27;;;50.20;;
23802;SDS011;12082;51.786;6.018;2023-07-31T00:59:32;65.07;;;37.37;;
23802;SDS011;12082;51.786;6.018;2023-07-31T01:01:58;57.70;;;38.07;;
23802;SDS011;12082;51.786;6.018;2023-07-31T01:04:23;68.67;;;38.07;;
23802;SDS011;12082;51.786;6.018;2023-07-31T01:07:02;76.87;;;35.73;;
23802;SDS011;12082;51.786;6.018;2023-07-31T01:09:40;66.30;;;33.37;;
23802;SDS011;12082;51.786;6.018;2023-07-31T01:12:13;69.37;;;36.87;;
23802;SDS011;12082;51.786;6.018;2023-07-31T01:14:50;55.97;;;33.93;;
23802;SDS011;12082;51.786;6.018;2023-07-31T01:17:16;62.53;;;32.70;;
23802;SDS011;12082;51.786;6.018;2023-07-31T01:19:42;53.03;;;30.23;;
23802;SDS011;12082;51.786;6.018;2023-07-31T01:22:30;54.20;;;31.40;;
23802;SDS011;12082;51.786;6.018;2023-07-31T01:25:20;55.73;;;29.97;;
23802;SDS011;12082;51.786;6.018;2023-07-31T01:27:59;61.73;;;31.07;;
23802;SDS011;12082;51.786;6.018;2023-07-31T01:30:29;57.40;;;30.53;;
23802;SDS011;12082;51.786;6.018;2023-07-31T01:33:02;51.03;;;28.83;;
23802;SDS011;12082;51.786;6.018;2023-07-31T01:35:32;59.23;;;30.73;;
23802;SDS011;12082;51.786;6.018;2023-07-31T01:38:01;52.20;;;28.27;;
23802;SDS011;12082;51.786;6.018;2023-07-31T01:40:27;65.87;;;28.67;;
23802;SDS011;12082;51.786;6.018;2023-07-31T01:42:52;52.10;;;29.63;;
23802;SDS011;12082;51.786;6.018;2023-07-31T01:45:18;48.43;;;27.10;;
23802;SDS011;12082;51.786;6.018;2023-07-31T01:47:43;58.20;;;28.03;;
23802;SDS011;12082;51.786;6.018;2023-07-31T01:50:09;53.90;;;28.63;;
23802;SDS011;12082;51.786;6.018;2023-07-31T01:52:34;50.27;;;35.23;;
23802;SDS011;12082;51.786;6.018;2023-07-31T01:55:00;51.10;;;25.53;;
23802;SDS011;12082;51.786;6.018;2023-07-31T01:57:26;53.60;;;28.40;;
23802;SDS011;12082;51.786;6.018;2023-07-31T01:59:51;54.17;;;28.73;;
23802;SDS011;12082;51.786;6.018;2023-07-31T02:02:18;46.63;;;26.50;;
23802;SDS011;12082;51.786;6.018;2023-07-31T02:04:44;48.20;;;27.70;;
23802;SDS011;12082;51.786;6.018;2023-07-31T02:07:10;49.90;;;24.63;;
23802;SDS011;12082;51.786;6.018;2023-07-31T02:09:35;40.80;;;25.83;;
23802;SDS011;12082;51.786;6.018;2023-07-31T02:12:01;43.07;;;23.47;;
23802;SDS011;12082;51.786;6.018;2023-07-31T02:14:27;46.93;;;22.27;;
23802;SDS011;12082;51.786;6.018;2023-07-31T02:16:52;36.83;;;24.63;;
23802;SDS011;12082;51.786;6.018;2023-07-31T02:19:18;42.33;;;23.90;;
23802;SDS011;12082;51.786;6.018;2023-07-31T02:21:43;50.30;;;24.43;;
23802;SDS011;12082;51.786;6.018;2023-07-31T02:24:09;39.37;;;21.27;;
23802;SDS011;12082;51.786;6.018;2023-07-31T02:26:34;50.30;;;23.70;;
23802;SDS011;12082;51.786;6.018;2023-07-31T02:29:00;50.27;;;24.27;;
23802;SDS011;12082;51.786;6.018;2023-07-31T02:31:26;38.57;;;22.53;;
23802;SDS011;12082;51.786;6.018;2023-07-31T02:33:51;41.67;;;23.70;;
23802;SDS011;12082;51.786;6.018;2023-07-31T02:36:17;33.50;;;21.37;;
23802;SDS011;12082;51.786;6.018;2023-07-31T02:38:42;33.87;;;23.33;;
23802;SDS011;12082;51.786;6.018;2023-07-31T02:41:08;47.30;;;22.90;;
23802;SDS011;12082;51.786;6.018;2023-07-31T02:43:33;40.23;;;22.87;;
23802;SDS011;12082;51.786;6.018;2023-07-31T02:45:59;45.77;;;23.93;;
23802;SDS011;12082;51.786;6.018;2023-07-31T02:48:24;43.00;;;22.83;;
23802;SDS011;12082;51.786;6.018;2023-07-31T02:50:50;32.13;;;21.23;;
23802;SDS011;12082;51.786;6.018;2023-07-31T02:53:15;37.67;;;22.17;;
23802;SDS011;12082;51.786;6.018;2023-07-31T02:55:41;44.67;;;23.53;;
23802;SDS011;12082;51.786;6.018;2023-07-31T02:58:07;38.83;;;22.10;;
23802;SDS011;12082;51.786;6.018;2023-07-31T03:00:32;39.50;;;22.90;;
23802;SDS011;12082;51.786;6.018;2023-07-31T03:02:58;38.37;;;20.73;;
23802;SDS011;12082;51.786;6.018;2023-07-31T03:05:23;36.93;;;20.10;;
23802;SDS011;12082;51.786;6.018;2023-07-31T03:07:49;29.27;;;20.33;;
23802;SDS011;12082;51.786;6.018;2023-07-31T03:10:14;34.53;;;21.37;;
23802;SDS011;12082;51.786;6.018;2023-07-31T03:12:40;36.50;;;19.87;;
23802;SDS011;12082;51.786;6.018;2023-07-31T03:15:06;31.63;;;20.53;;
23802;SDS011;12082;51.786;6.018;2023-07-31T03:17:32;34.93;;;19.77;;
23802;SDS011;12082;51.786;6.018;2023-07-31T03:19:57;31.17;;;21.83;;
23802;SDS011;12082;51.786;6.018;2023-07-31T03:22:23;32.90;;;21.03;;
23802;SDS011;12082;51.786;6.018;2023-07-31T03:24:49;32.30;;;19.93;;
23802;SDS011;12082;51.786;6.018;2023-07-31T03:27:14;26.43;;;19.53;;
23802;SDS011;12082;51.786;6.018;2023-07-31T03:29:40;35.60;;;21.17;;
23802;SDS011;12082;51.786;6.018;2023-07-31T03:32:05;32.53;;;20.57;;
23802;SDS011;12082;51.786;6.018;2023-07-31T03:34:31;34.33;;;19.20;;
23802;SDS011;12082;51.786;6.018;2023-07-31T03:36:57;33.97;;;21.67;;
23802;SDS011;12082;51.786;6.018;2023-07-31T03:39:23;36.33;;;20.10;;
23802;SDS011;12082;51.786;6.018;2023-07-31T03:41:48;35.30;;;20.33;;
23802;SDS011;12082;51.786;6.018;2023-07-31T03:44:14;38.53;;;19.27;;
23802;SDS011;12082;51.786;6.018;2023-07-31T03:46:40;31.10;;;20.60;;
23802;SDS011;12082;51.786;6.018;2023-07-31T03:49:05;29.20;;;19.60;;
23802;SDS011;12082;51.786;6.018;2023-07-31T03:51:31;29.90;;;20.07;;
23802;SDS011;12082;51.786;6.018;2023-07-31T03:53:56;28.80;;;19.40;;
23802;SDS011;12082;51.786;6.018;2023-07-31T03:56:22;39.20;;;19.57;;
23802;SDS011;12082;51.786;6.018;2023-07-31T03:58:47;30.27;;;19.53;;
23802;SDS011;12082;51.786;6.018;2023-07-31T04:01:13;26.70;;;17.87;;
23802;SDS011;12082;51.786;6.018;2023-07-31T04:03:38;30.90;;;19.57;;
23802;SDS011;12082;51.786;6.018;2023-07-31T04:06:04;34.87;;;18.20;;
23802;SDS011;12082;51.786;6.018;2023-07-31T04:08:31;38.37;;;19.20;;
23802;SDS011;12082;51.786;6.018;2023-07-31T04:10:57;29.33;;;17.63;;
23802;SDS011;12082;51.786;6.018;2023-07-31T04:13:23;30.87;;;18.80;;
23802;SDS011;12082;51.786;6.018;2023-07-31T04:15:49;25.73;;;17.07;;
23802;SDS011;12082;51.786;6.018;2023-07-31T04:18:19;26.67;;;17.17;;
23802;SDS011;12082;51.786;6.018;2023-07-31T04:20:45;28.37;;;16.63;;
23802;SDS011;12082;51.786;6.018;2023-07-31T04:23:10;25.97;;;16.97;;
23802;SDS011;12082;51.786;6.018;2023-07-31T04:25:36;26.57;;;17.53;;
23802;SDS011;12082;51.786;6.018;2023-07-31T04:28:02;30.20;;;16.60;;
23802;SDS011;12082;51.786;6.018;2023-07-31T04:30:27;22.13;;;16.37;;
23802;SDS011;12082;51.786;6.018;2023-07-31T04:32:53;24.70;;;16.30;;
23802;SDS011;12082;51.786;6.018;2023-07-31T04:35:18;23.97;;;16.80;;
23802;SDS011;12082;51.786;6.018;2023-07-31T04:37:44;29.90;;;17.43;;
23802;SDS011;12082;51.786;6.018;2023-07-31T04:40:13;26.17;;;17.33;;
23802;SDS011;12082;51.786;6.018;2023-07-31T04:42:38;19.90;;;17.60;;
23802;SDS011;12082;51.786;6.018;2023-07-31T04:45:04;22.63;;;16.00;;
23802;SDS011;12082;51.786;6.018;2023-07-31T04:47:30;17.20;;;15.40;;
23802;SDS011;12082;51.786;6.018;2023-07-31T04:49:56;21.00;;;16.37;;
23802;SDS011;12082;51.786;6.018;2023-07-31T04:52:21;19.93;;;16.20;;
23802;SDS011;12082;51.786;6.018;2023-07-31T04:54:47;19.30;;;15.50;;
23802;SDS011;12082;51.786;6.018;2023-07-31T04:57:12;22.43;;;16.43;;
23802;SDS011;12082;51.786;6.018;2023-07-31T04:59:38;22.60;;;16.83;;
23802;SDS011;12082;51.786;6.018;2023-07-31T05:02:03;18.77;;;16.87;;
23802;SDS011;12082;51.786;6.018;2023-07-31T05:04:29;21.93;;;17.87;;
23802;SDS011;12082;51.786;6.018;2023-07-31T05:06:55;18.23;;;15.57;;
23802;SDS011;12082;51.786;6.018;2023-07-31T05:09:20;18.93;;;16.93;;
23802;SDS011;12082;51.786;6.018;2023-07-31T05:11:46;25.20;;;17.03;;
23802;SDS011;12082;51.786;6.018;2023-07-31T05:14:11;18.93;;;16.30;;
23802;SDS011;12082;51.786;6.018;2023-07-31T05:16:37;20.57;;;15.57;;
23802;SDS011;12082;51.786;6.018;2023-07-31T05:19:02;20.87;;;17.60;;
23802;SDS011;12082;51.786;6.018;2023-07-31T05:21:28;24.60;;;18.20;;
23802;SDS011;12082;51.786;6.018;2023-07-31T05:23:53;22.07;;;17.93;;
23802;SDS011;12082;51.786;6.018;2023-07-31T05:26:19;19.30;;;17.23;;
23802;SDS011;12082;51.786;6.018;2023-07-31T05:28:45;24.50;;;16.43;;
23802;SDS011;12082;51.786;6.018;2023-07-31T05:31:10;21.00;;;16.30;;
23802;SDS011;12082;51.786;6.018;2023-07-31T05:33:36;17.83;;;15.63;;
23802;SDS011;12082;51.786;6.018;2023-07-31T05:36:01;19.83;;;17.87;;
23802;SDS011;12082;51.786;6.018;2023-07-31T05:38:27;22.23;;;15.83;;
23802;SDS011;12082;51.786;6.018;2023-07-31T05:40:52;26.07;;;17.73;;
23802;SDS011;12082;51.786;6.018;2023-07-31T05:43:18;16.93;;;15.00;;
23802;SDS011;12082;51.786;6.018;2023-07-31T05:45:43;23.10;;;16.47;;
23802;SDS011;12082;51.786;6.018;2023-07-31T05:48:09;21.43;;;15.00;;
23802;SDS011;12082;51.786;6.018;2023-07-31T05:50:35;21.83;;;15.73;;
23802;SDS011;12082;51.786;6.018;2023-07-31T05:53:00;22.90;;;15.23;;
23802;SDS011;12082;51.786;6.018;2023-07-31T05:55:26;21.77;;;15.93;;
23802;SDS011;12082;51.786;6.018;2023-07-31T05:57:54;20.00;;;15.73;;
23802;SDS011;12082;51.786;6.018;2023-07-31T06:00:20;20.13;;;15.67;;
23802;SDS011;12082;51.786;6.018;2023-07-31T06:02:47;18.60;;;16.30;;
23802;SDS011;12082;51.786;6.018;2023-07-31T06:05:13;25.90;;;17.10;;
23802;SDS011;12082;51.786;6.018;2023-07-31T06:07:38;27.07;;;15.30;;
23802;SDS011;12082;51.786;6.018;2023-07-31T06:10:04;23.43;;;15.90;;
23802;SDS011;12082;51.786;6.018;2023-07-31T06:12:34;24.97;;;16.43;;
23802;SDS011;12082;51.786;6.018;2023-07-31T06:15:00;17.97;;;15.67;;
23802;SDS011;12082;51.786;6.018;2023-07-31T06:17:27;23.20;;;18.57;;
23802;SDS011;12082;51.786;6.018;2023-07-31T06:19:53;17.13;;;15.00;;
23802;SDS011;12082;51.786;6.018;2023-07-31T06:22:18;23.67;;;18.43;;
23802;SDS011;12082;51.786;6.018;2023-07-31T06:24:44;17.97;;;15.03;;
23802;SDS011;12082;51.786;6.018;2023-07-31T06:27:10;20.30;;;16.33;;
23802;SDS011;12082;51.786;6.018;2023-07-31T06:29:36;19.47;;;17.37;;
23802;SDS011;12082;51.786;6.018;2023-07-31T06:32:01;18.67;;;16.67;;
23802;SDS011;12082;51.786;6.018;2023-07-31T06:34:27;19.77;;;16.30;;
23802;SDS011;12082;51.786;6.018;2023-07-31T06:36:53;17.87;;;16.07;;
23802;SDS011;12082;51.786;6.018;2023-07-31T06:39:18;22.73;;;16.87;;
23802;SDS011;12082;51.786;6.018;2023-07-31T06:41:44;19.87;;;16.13;;
23802;SDS011;12082;51.786;6.018;2023-07-31T06:44:10;17.93;;;15.67;;
23802;SDS011;12082;51.786;6.018;2023-07-31T06:46:36;18.37;;;16.77;;
23802;SDS011;12082;51.786;6.018;2023-07-31T06:49:01;16.93;;;14.23;;
23802;SDS011;12082;51.786;6.018;2023-07-31T06:51:27;17.87;;;16.47;;
23802;SDS011;12082;51.786;6.018;2023-07-31T06:53:52;16.07;;;14.70;;
23802;SDS011;12082;51.786;6.018;2023-07-31T06:56:18;16.67;;;15.43;;
23802;SDS011;12082;51.786;6.018;2023-07-31T06:58:43;16.53;;;15.03;;
23802;SDS011;12082;51.786;6.018;2023-07-31T07:01:09;16.33;;;15.23;;
23802;SDS011;12082;51.786;6.018;2023-07-31T07:03:34;17.00;;;15.60;;
23802;SDS011;12082;51.786;6.018;2023-07-31T07:06:00;16.20;;;14.70;;
23802;SDS011;12082;51.786;6.018;2023-07-31T07:08:26;16.23;;;14.83;;
23802;SDS011;12082;51.786;6.018;2023-07-31T07:10:51;15.57;;;14.63;;
23802;SDS011;12082;51.786;6.018;2023-07-31T07:13:17;16.37;;;15.27;;
23802;SDS011;12082;51.786;6.018;2023-07-31T07:15:43;15.67;;;14.57;;
23802;SDS011;12082;51.786;6.018;2023-07-31T07:18:15;15.97;;;14.97;;
23802;SDS011;12082;51.786;6.018;2023-07-31T07:20:46;15.97;;;14.77;;
23802;SDS011;12082;51.786;6.018;2023-07-31T07:23:15;15.37;;;14.27;;
23802;SDS011;12082;51.786;6.018;2023-07-31T07:25:41;14.10;;;13.20;;
23802;SDS011;12082;51.786;6.018;2023-07-31T07:28:11;15.90;;;14.80;;
23802;SDS011;12082;51.786;6.018;2023-07-31T07:30:36;16.53;;;15.53;;
23802;SDS011;12082;51.786;6.018;2023-07-31T07:33:02;18.03;;;16.63;;
23802;SDS011;12082;51.786;6.018;2023-07-31T07:35:28;15.77;;;14.70;;
23802;SDS011;12082;51.786;6.018;2023-07-31T07:37:53;16.13;;;15.10;;
23802;SDS011;12082;51.786;6.018;2023-07-31T07:40:19;16.07;;;15.00;;
23802;SDS011;12082;51.786;6.018;2023-07-31T07:42:45;15.50;;;14.43;;
23802;SDS011;12082;51.786;6.018;2023-07-31T07:45:11;15.47;;;14.37;;
23802;SDS011;12082;51.786;6.018;2023-07-31T07:47:38;15.90;;;14.70;;
23802;SDS011;12082;51.786;6.018;2023-07-31T07:50:06;15.07;;;13.97;;
23802;SDS011;12082;51.786;6.018;2023-07-31T07:52:33;14.97;;;13.87;;
23802;SDS011;12082;51.786;6.018;2023-07-31T07:54:58;15.50;;;14.33;;
23802;SDS011;12082;51.786;6.018;2023-07-31T07:57:25;16.60;;;15.23;;
23802;SDS011;12082;51.786;6.018;2023-07-31T07:59:51;16.30;;;15.00;;
23802;SDS011;12082;51.786;6.018;2023-07-31T08:02:16;15.33;;;14.33;;
23802;SDS011;12082;51.786;6.018;2023-07-31T08:04:42;15.00;;;13.90;;
23802;SDS011;12082;51.786;6.018;2023-07-31T08:07:07;16.00;;;14.63;;
23802;SDS011;12082;51.786;6.018;2023-07-31T08:09:35;15.63;;;14.47;;
23802;SDS011;12082;51.786;6.018;2023-07-31T08:12:01;14.67;;;13.43;;
23802;SDS011;12082;51.786;6.018;2023-07-31T08:14:28;14.43;;;13.43;;
23802;SDS011;12082;51.786;6.018;2023-07-31T08:16:53;16.57;;;15.33;;
23802;SDS011;12082;51.786;6.018;2023-07-31T08:19:19;16.07;;;14.70;;
23802;SDS011;12082;51.786;6.018;2023-07-31T08:21:45;15.47;;;14.37;;
23802;SDS011;12082;51.786;6.018;2023-07-31T08:24:10;15.57;;;14.57;;
23802;SDS011;12082;51.786;6.018;2023-07-31T08:26:36;16.03;;;14.57;;
23802;SDS011;12082;51.786;6.018;2023-07-31T08:29:01;15.27;;;14.27;;
23802;SDS011;12082;51.786;6.018;2023-07-31T08:31:27;14.60;;;13.50;;
23802;SDS011;12082;51.786;6.018;2023-07-31T08:33:54;16.53;;;15.20;;
23802;SDS011;12082;51.786;6.018;2023-07-31T08:36:20;17.53;;;16.10;;
23802;SDS011;12082;51.786;6.018;2023-07-31T08:38:45;17.00;;;15.60;;
23802;SDS011;12082;51.786;6.018;2023-07-31T08:41:11;18.67;;;17.27;;
23802;SDS011;12082;51.786;6.018;2023-07-31T08:43:38;15.87;;;14.60;;
23802;SDS011;12082;51.786;6.018;2023-07-31T08:46:04;17.33;;;15.93;;
23802;SDS011;12082;51.786;6.018;2023-07-31T08:48:30;17.17;;;15.53;;
23802;SDS011;12082;51.786;6.018;2023-07-31T08:50:58;17.47;;;15.83;;
23802;SDS011;12082;51.786;6.018;2023-07-31T08:53:23;19.20;;;17.70;;
23802;SDS011;12082;51.786;6.018;2023-07-31T08:55:49;17.60;;;16.10;;
23802;SDS011;12082;51.786;6.018;2023-07-31T08:58:17;16.83;;;15.67;;
23802;SDS011;12082;51.786;6.018;2023-07-31T09:00:43;16.33;;;14.93;;
23802;SDS011;12082;51.786;6.018;2023-07-31T09:03:15;16.67;;;15.37;;
23802;SDS011;12082;51.786;6.018;2023-07-31T09:05:44;15.47;;;14.33;;
23802;SDS011;12082;51.786;6.018;2023-07-31T09:08:12;15.57;;;14.37;;
23802;SDS011;12082;51.786;6.018;2023-07-31T09:10:40;14.60;;;13.50;;
23802;SDS011;12082;51.786;6.018;2023-07-31T09:13:11;16.37;;;15.17;;
23802;SDS011;12082;51.786;6.018;2023-07-31T09:15:37;14.90;;;13.40;;
23802;SDS011;12082;51.786;6.018;2023-07-31T09:18:04;15.47;;;14.27;;
23802;SDS011;12082;51.786;6.018;2023-07-31T09:20:31;16.33;;;15.13;;
23802;SDS011;12082;51.786;6.018;2023-07-31T09:23:04;15.20;;;14.00;;
23802;SDS011;12082;51.786;6.018;2023-07-31T09:25:34;15.97;;;14.70;;
23802;SDS011;12082;51.786;6.018;2023-07-31T09:28:03;15.93;;;14.73;;
23802;SDS011;12082;51.786;6.018;2023-07-31T09:30:28;16.57;;;15.17;;
23802;SDS011;12082;51.786;6.018;2023-07-31T09:33:01;17.10;;;15.90;;
23802;SDS011;12082;51.786;6.018;2023-07-31T09:35:29;18.37;;;17.07;;
23802;SDS011;12082;51.786;6.018;2023-07-31T09:38:00;18.07;;;16.50;;
23802;SDS011;12082;51.786;6.018;2023-07-31T09:40:30;17.07;;;15.67;;
23802;SDS011;12082;51.786;6.018;2023-07-31T09:43:00;17.83;;;16.13;;
23802;SDS011;12082;51.786;6.018;2023-07-31T09:45:33;17.93;;;16.43;;
23802;SDS011;12082;51.786;6.018;2023-07-31T09:48:02;18.30;;;16.80;;
23802;SDS011;12082;51.786;6.018;2023-07-31T09:50:28;19.03;;;17.43;;
23802;SDS011;12082;51.786;6.018;2023-07-31T09:52:54;18.90;;;17.40;;
23802;SDS011;12082;51.786;6.018;2023-07-31T09:55:20;19.23;;;17.77;;
23802;SDS011;12082;51.786;6.018;2023-07-31T09:57:46;21.80;;;19.70;;
23802;SDS011;12082;51.786;6.018;2023-07-31T10:00:13;19.80;;;17.77;;
23802;SDS011;12082;51.786;6.018;2023-07-31T10:02:40;21.60;;;19.50;;
23802;SDS011;12082;51.786;6.018;2023-07-31T10:05:09;21.87;;;19.73;;
23802;SDS011;12082;51.786;6.018;2023-07-31T10:07:41;21.90;;;19.80;;
23802;SDS011;12082;51.786;6.018;2023-07-31T10:10:10;23.57;;;20.83;;
23802;SDS011;12082;51.786;6.018;2023-07-31T10:12:38;24.83;;;22.40;;
23802;SDS011;12082;51.786;6.018;2023-07-31T10:15:04;24.40;;;21.93;;
23802;SDS011;12082;51.786;6.018;2023-07-31T10:17:30;25.63;;;22.37;;
23802;SDS011;12082;51.786;6.018;2023-07-31T10:19:58;24.20;;;21.13;;
23802;SDS011;12082;51.786;6.018;2023-07-31T10:22:26;27.20;;;24.53;;
23802;SDS011;12082;51.786;6.018;2023-07-31T10:24:52;25.00;;;22.40;;
23802;SDS011;12082;51.786;6.018;2023-07-31T10:27:20;24.83;;;22.30;;
23802;SDS011;12082;51.786;6.018;2023-07-31T10:29:45;23.37;;;20.93;;
23802;SDS011;12082;51.786;6.018;2023-07-31T10:32:13;24.40;;;21.83;;
23802;SDS011;12082;51.786;6.018;2023-07-31T10:34:40;25.90;;;23.30;;
23802;SDS011;12082;51.786;6.018;2023-07-31T10:42:28;23.80;;;21.70;;
23802;SDS011;12082;51.786;6.018;2023-07-31T10:45:02;22.63;;;20.37;;
23802;SDS011;12082;51.786;6.018;2023-07-31T10:47:45;22.50;;;20.53;;
23802;SDS011;12082;51.786;6.018;2023-07-31T10:50:12;21.80;;;19.50;;
23802;SDS011;12082;51.786;6.018;2023-07-31T10:52:48;21.33;;;19.13;;
23802;SDS011;12082;51.786;6.018;2023-07-31T10:58:07;22.33;;;20.17;;
23802;SDS011;12082;51.786;6.018;2023-07-31T11:00:36;22.30;;;20.27;;
23802;SDS011;12082;51.786;6.018;2023-07-31T11:03:16;23.20;;;21.37;;
23802;SDS011;12082;51.786;6.018;2023-07-31T11:08:24;19.73;;;18.03;;
23802;SDS011;12082;51.786;6.018;2023-07-31T11:13:34;18.17;;;16.77;;
23802;SDS011;12082;51.786;6.018;2023-07-31T11:16:11;19.63;;;18.13;;
23802;SDS011;12082;51.786;6.018;2023-07-31T11:18:38;19.67;;;18.20;;
23802;SDS011;12082;51.786;6.018;2023-07-31T11:21:06;19.37;;;18.07;;
23802;SDS011;12082;51.786;6.018;2023-07-31T11:23:32;18.23;;;16.93;;
23802;SDS011;12082;51.786;6.018;2023-07-31T11:25:59;18.60;;;16.90;;
23802;SDS011;12082;51.786;6.018;2023-07-31T11:28:25;19.43;;;18.00;;
23802;SDS011;12082;51.786;6.018;2023-07-31T11:30:50;18.60;;;17.23;;
23802;SDS011;12082;51.786;6.018;2023-07-31T11:33:16;19.90;;;18.20;;
23802;SDS011;12082;51.786;6.018;2023-07-31T11:35:45;18.17;;;16.37;;
23802;SDS011;12082;51.786;6.018;2023-07-31T11:38:29;19.70;;;17.83;;
23802;SDS011;12082;51.786;6.018;2023-07-31T11:40:58;21.13;;;19.40;;
23802;SDS011;12082;51.786;6.018;2023-07-31T11:43:27;22.37;;;20.47;;
23802;SDS011;12082;51.786;6.018;2023-07-31T11:45:54;21.10;;;19.37;;
23802;SDS011;12082;51.786;6.018;2023-07-31T11:48:25;22.27;;;20.20;;
23802;SDS011;12082;51.786;6.018;2023-07-31T11:50:53;22.60;;;21.00;;
23802;SDS011;12082;51.786;6.018;2023-07-31T11:56:07;18.83;;;17.43;;
23802;SDS011;12082;51.786;6.018;2023-07-31T11:58:36;18.37;;;16.97;;
23802;SDS011;12082;51.786;6.018;2023-07-31T12:01:03;19.57;;;17.97;;
23802;SDS011;12082;51.786;6.018;2023-07-31T12:03:30;18.20;;;17.03;;
23802;SDS011;12082;51.786;6.018;2023-07-31T12:05:57;19.17;;;17.70;;
23802;SDS011;12082;51.786;6.018;2023-07-31T12:08:24;19.03;;;17.67;;
23802;SDS011;12082;51.786;6.018;2023-07-31T12:10:50;18.53;;;17.20;;
23802;SDS011;12082;51.786;6.018;2023-07-31T12:13:20;19.43;;;18.03;;
23802;SDS011;12082;51.786;6.018;2023-07-31T12:15:47;18.87;;;17.67;;
23802;SDS011;12082;51.786;6.018;2023-07-31T12:18:14;17.47;;;16.27;;
23802;SDS011;12082;51.786;6.018;2023-07-31T12:20:44;17.60;;;16.23;;
23802;SDS011;12082;51.786;6.018;2023-07-31T12:23:22;16.60;;;15.23;;
23802;SDS011;12082;51.786;6.018;2023-07-31T12:28:32;18.27;;;17.17;;
23802;SDS011;12082;51.786;6.018;2023-07-31T12:31:21;18.53;;;17.30;;
23802;SDS011;12082;51.786;6.018;2023-07-31T12:33:48;18.60;;;17.40;;
23802;SDS011;12082;51.786;6.018;2023-07-31T12:36:15;17.10;;;15.83;;
23802;SDS011;12082;51.786;6.018;2023-07-31T12:38:48;16.30;;;14.73;;
23802;SDS011;12082;51.786;6.018;2023-07-31T12:41:15;17.37;;;15.83;;
23802;SDS011;12082;51.786;6.018;2023-07-31T12:43:41;14.20;;;13.20;;
23802;SDS011;12082;51.786;6.018;2023-07-31T12:46:08;16.23;;;15.10;;
23802;SDS011;12082;51.786;6.018;2023-07-31T12:48:34;15.30;;;14.30;;
23802;SDS011;12082;51.786;6.018;2023-07-31T12:51:01;16.17;;;15.17;;
23802;SDS011;12082;51.786;6.018;2023-07-31T12:53:27;18.80;;;17.57;;
23802;SDS011;12082;51.786;6.018;2023-07-31T12:55:54;16.70;;;15.60;;
23802;SDS011;12082;51.786;6.018;2023-07-31T12:58:23;14.73;;;13.43;;
23802;SDS011;12082;51.786;6.018;2023-07-31T13:00:48;16.87;;;15.67;;
23802;SDS011;12082;51.786;6.018;2023-07-31T13:03:14;13.70;;;12.90;;
23802;SDS011;12082;51.786;6.018;2023-07-31T13:05:40;15.73;;;14.63;;
23802;SDS011;12082;51.786;6.018;2023-07-31T13:08:06;16.70;;;15.63;;
23802;SDS011;12082;51.786;6.018;2023-07-31T13:10:31;18.97;;;17.73;;
23802;SDS011;12082;51.786;6.018;2023-07-31T13:12:57;14.83;;;13.93;;
23802;SDS011;12082;51.786;6.018;2023-07-31T13:15:23;17.23;;;16.03;;
23802;SDS011;12082;51.786;6.018;2023-07-31T13:17:48;16.97;;;15.77;;
23802;SDS011;12082;51.786;6.018;2023-07-31T13:20:14;17.63;;;16.57;;
23802;SDS011;12082;51.786;6.018;2023-07-31T13:22:39;16.17;;;15.17;;
23802;SDS011;12082;51.786;6.018;2023-07-31T13:25:05;20.33;;;18.93;;
23802;SDS011;12082;51.786;6.018;2023-07-31T13:27:31;20.03;;;18.83;;
23802;SDS011;12082;51.786;6.018;2023-07-31T13:29:57;21.17;;;19.67;;
23802;SDS011;12082;51.786;6.018;2023-07-31T13:32:22;19.20;;;17.50;;
23802;SDS011;12082;51.786;6.018;2023-07-31T13:34:48;20.33;;;18.93;;
23802;SDS011;12082;51.786;6.018;2023-07-31T13:37:14;22.67;;;21.00;;
23802;SDS011;12082;51.786;6.018;2023-07-31T13:39:40;20.73;;;19.03;;
23802;SDS011;12082;51.786;6.018;2023-07-31T13:42:06;22.43;;;20.93;;
23802;SDS011;12082;51.786;6.018;2023-07-31T13:44:36;22.33;;;20.93;;
23802;SDS011;12082;51.786;6.018;2023-07-31T13:47:02;21.93;;;20.37;;
23802;SDS011;12082;51.786;6.018;2023-07-31T13:49:28;24.17;;;22.60;;
23802;SDS011;12082;51.786;6.018;2023-07-31T13:51:55;23.40;;;21.73;;
23802;SDS011;12082;51.786;6.018;2023-07-31T13:54:21;24.53;;;22.70;;
23802;SDS011;12082;51.786;6.018;2023-07-31T13:56:47;21.47;;;19.93;;
23802;SDS011;12082;51.786;6.018;2023-07-31T13:59:13;24.33;;;22.53;;
23802;SDS011;12082;51.786;6.018;2023-07-31T14:01:40;23.90;;;21.90;;
23802;SDS011;12082;51.786;6.018;2023-07-31T14:04:05;24.57;;;23.03;;
23802;SDS011;12082;51.786;6.018;2023-07-31T14:06:31;23.30;;;21.70;;
23802;SDS011;12082;51.786;6.018;2023-07-31T14:08:56;22.43;;;20.70;;
23802;SDS011;12082;51.786;6.018;2023-07-31T14:11:22;20.90;;;19.20;;
23802;SDS011;12082;51.786;6.018;2023-07-31T14:13:48;20.50;;;18.90;;
23802;SDS011;12082;51.786;6.018;2023-07-31T14:16:15;20.67;;;18.73;;
23802;SDS011;12082;51.786;6.018;2023-07-31T14:18:41;20.87;;;19.20;;
23802;SDS011;12082;51.786;6.018;2023-07-31T14:21:07;17.27;;;15.93;;
23802;SDS011;12082;51.786;6.018;2023-07-31T14:23:32;18.97;;;17.47;;
23802;SDS011;12082;51.786;6.018;2023-07-31T14:25:58;19.03;;;17.33;;
23802;SDS011;12082;51.786;6.018;2023-07-31T14:28:24;21.67;;;20.10;;
23802;SDS011;12082;51.786;6.018;2023-07-31T14:30:49;24.83;;;23.07;;
23802;SDS011;12082;51.786;6.018;2023-07-31T14:33:15;23.87;;;22.07;;
23802;SDS011;12082;51.786;6.018;2023-07-31T14:35:41;23.43;;;21.70;;
23802;SDS011;12082;51.786;6.018;2023-07-31T14:38:06;20.90;;;19.37;;